sensor_id;sensor_type;location;lat;lon;timestamp;P1;durP1;ratioP1;P2;durP2;ratioP2
6251;SDS011;3159;52.414;9.784;2023-02-08T00:00:56;66.77;;;33.40;;
6251;SDS011;3159;52.414;9.784;2023-02-08T00:03:23;62.63;;;32.97;;
6251;SDS011;3159;52.414;9.784;2023-02-08T00:05:53;67.40;;;33.87;;
6251;SDS011;3159;52.414;9.784;2023-02-08T00:08:19;64.47;;;32.40;;
6251;SDS011;3159;52.414;9.784;2023-02-08T00:10:46;60.10;;;32.57;;
6251;SDS011;3159;52.414;9.784;2023-02-08T00:13:14;65.63;;;34.17;;
6251;SDS011;3159;52.414;9.784;2023-02-08T00:15:41;63.90;;;33.07;;
6251;SDS011;3159;52.414;9.784;2023-02-08T00:18:08;62.40;;;32.47;;
6251;SDS011;3159;52.414;9.784;2023-02-08T00:20:36;62.73;;;33.13;;
6251;SDS011;3159;52.414;9.784;2023-02-08T00:23:05;58.17;;;31.83;;
6251;SDS011;3159;52.414;9.784;2023-02-08T00:25:32;62.23;;;31.37;;
6251;SDS011;3159;52.414;9.784;2023-02-08T00:27:59;69.93;;;32.40;;
6251;SDS011;3159;52.414;9.784;2023-02-08T00:30:25;62.63;;;31.70;;
6251;SDS011;3159;52.414;9.784;2023-02-08T00:32:52;56.43;;;31.83;;
6251;SDS011;3159;52.414;9.784;2023-02-08T00:35:19;57.80;;;30.10;;
6251;SDS011;3159;52.414;9.784;2023-02-08T00:37:46;61.83;;;31.90;;
6251;SDS011;3159;52.414;9.784;2023-02-08T00:40:14;59.30;;;30.97;;
6251;SDS011;3159;52.414;9.784;2023-02-08T00:42:41;57.63;;;30.83;;
6251;SDS011;3159;52.414;9.784;2023-02-08T00:45:08;62.43;;;31.63;;
6251;SDS011;3159;52.414;9.784;2023-02-08T00:47:35;57.10;;;31.03;;
6251;SDS011;3159;52.414;9.784;2023-02-08T00:50:02;58.17;;;30.57;;
6251;SDS011;3159;52.414;9.784;2023-02-08T00:52:29;64.17;;;32.13;;
6251;SDS011;3159;52.414;9.784;2023-02-08T00:54:56;57.63;;;31.37;;
6251;SDS011;3159;52.414;9.784;2023-02-08T00:57:24;58.93;;;31.97;;
6251;SDS011;3159;52.414;9.784;2023-02-08T00:59:51;60.83;;;30.57;;
6251;SDS011;3159;52.414;9.784;2023-02-08T01:02:18;63.90;;;32.50;;
6251;SDS011;3159;52.414;9.784;2023-02-08T01:04:45;62.53;;;30.00;;
6251;SDS011;3159;52.414;9.784;2023-02-08T01:07:11;58.30;;;30.60;;
6251;SDS011;3159;52.414;9.784;2023-02-08T01:09:38;57.70;;;30.17;;
6251;SDS011;3159;52.414;9.784;2023-02-08T01:12:05;57.10;;;29.73;;
6251;SDS011;3159;52.414;9.784;2023-02-08T01:14:35;59.00;;;29.97;;
6251;SDS011;3159;52.414;9.784;2023-02-08T01:17:02;61.33;;;30.50;;
6251;SDS011;3159;52.414;9.784;2023-02-08T01:19:29;60.93;;;32.90;;
6251;SDS011;3159;52.414;9.784;2023-02-08T01:21:56;60.07;;;31.23;;
6251;SDS011;3159;52.414;9.784;2023-02-08T01:24:22;67.33;;;32.80;;
6251;SDS011;3159;52.414;9.784;2023-02-08T01:26:49;61.53;;;32.13;;
6251;SDS011;3159;52.414;9.784;2023-02-08T01:29:16;59.63;;;31.63;;
6251;SDS011;3159;52.414;9.784;2023-02-08T01:31:45;67.80;;;33.27;;
6251;SDS011;3159;52.414;9.784;2023-02-08T01:34:12;63.60;;;32.30;;
6251;SDS011;3159;52.414;9.784;2023-02-08T01:36:38;72.23;;;34.57;;
6251;SDS011;3159;52.414;9.784;2023-02-08T01:39:06;64.27;;;33.20;;
6251;SDS011;3159;52.414;9.784;2023-02-08T01:41:36;65.50;;;33.33;;
6251;SDS011;3159;52.414;9.784;2023-02-08T01:44:05;69.43;;;34.27;;
6251;SDS011;3159;52.414;9.784;2023-02-08T01:46:54;67.00;;;33.60;;
6251;SDS011;3159;52.414;9.784;2023-02-08T01:49:21;71.63;;;34.47;;
6251;SDS011;3159;52.414;9.784;2023-02-08T01:51:52;73.73;;;34.13;;
6251;SDS011;3159;52.414;9.784;2023-02-08T01:54:24;70.97;;;32.97;;
6251;SDS011;3159;52.414;9.784;2023-02-08T01:56:53;67.00;;;33.37;;
6251;SDS011;3159;52.414;9.784;2023-02-08T01:59:21;70.23;;;33.20;;
6251;SDS011;3159;52.414;9.784;2023-02-08T02:01:51;64.53;;;33.27;;
6251;SDS011;3159;52.414;9.784;2023-02-08T02:04:21;69.20;;;31.90;;
6251;SDS011;3159;52.414;9.784;2023-02-08T02:06:50;63.97;;;30.80;;
6251;SDS011;3159;52.414;9.784;2023-02-08T02:09:22;61.77;;;31.80;;
6251;SDS011;3159;52.414;9.784;2023-02-08T02:11:53;65.47;;;31.97;;
6251;SDS011;3159;52.414;9.784;2023-02-08T02:14:21;55.90;;;29.63;;
6251;SDS011;3159;52.414;9.784;2023-02-08T02:16:49;57.77;;;30.80;;
6251;SDS011;3159;52.414;9.784;2023-02-08T02:19:17;57.07;;;29.63;;
6251;SDS011;3159;52.414;9.784;2023-02-08T02:21:56;55.73;;;28.27;;
6251;SDS011;3159;52.414;9.784;2023-02-08T02:24:36;64.40;;;30.70;;
6251;SDS011;3159;52.414;9.784;2023-02-08T02:27:24;61.83;;;28.90;;
6251;SDS011;3159;52.414;9.784;2023-02-08T02:30:20;61.97;;;29.60;;
6251;SDS011;3159;52.414;9.784;2023-02-08T02:33:21;57.63;;;29.17;;
6251;SDS011;3159;52.414;9.784;2023-02-08T02:35:56;50.33;;;27.83;;
6251;SDS011;3159;52.414;9.784;2023-02-08T02:38:30;54.40;;;28.73;;
6251;SDS011;3159;52.414;9.784;2023-02-08T02:41:09;55.83;;;29.17;;
6251;SDS011;3159;52.414;9.784;2023-02-08T02:44:05;62.97;;;29.67;;
6251;SDS011;3159;52.414;9.784;2023-02-08T02:46:39;54.90;;;30.20;;
6251;SDS011;3159;52.414;9.784;2023-02-08T02:49:11;54.87;;;28.57;;
6251;SDS011;3159;52.414;9.784;2023-02-08T02:51:45;57.07;;;29.30;;
6251;SDS011;3159;52.414;9.784;2023-02-08T02:54:15;52.63;;;27.67;;
6251;SDS011;3159;52.414;9.784;2023-02-08T02:56:46;60.87;;;29.57;;
6251;SDS011;3159;52.414;9.784;2023-02-08T02:59:16;60.07;;;28.97;;
6251;SDS011;3159;52.414;9.784;2023-02-08T03:01:45;52.83;;;28.33;;
6251;SDS011;3159;52.414;9.784;2023-02-08T03:04:15;47.33;;;27.47;;
6251;SDS011;3159;52.414;9.784;2023-02-08T03:06:47;53.53;;;27.33;;
6251;SDS011;3159;52.414;9.784;2023-02-08T03:09:38;55.83;;;27.30;;
6251;SDS011;3159;52.414;9.784;2023-02-08T03:12:20;55.27;;;27.43;;
6251;SDS011;3159;52.414;9.784;2023-02-08T03:15:01;53.83;;;27.07;;
6251;SDS011;3159;52.414;9.784;2023-02-08T03:17:40;57.87;;;27.50;;
6251;SDS011;3159;52.414;9.784;2023-02-08T03:20:18;50.77;;;26.53;;
6251;SDS011;3159;52.414;9.784;2023-02-08T03:22:51;51.23;;;27.27;;
6251;SDS011;3159;52.414;9.784;2023-02-08T03:25:26;54.17;;;26.67;;
6251;SDS011;3159;52.414;9.784;2023-02-08T03:27:59;57.63;;;27.37;;
6251;SDS011;3159;52.414;9.784;2023-02-08T03:30:33;57.53;;;26.43;;
6251;SDS011;3159;52.414;9.784;2023-02-08T03:33:09;49.13;;;26.10;;
6251;SDS011;3159;52.414;9.784;2023-02-08T03:35:42;54.40;;;27.27;;
6251;SDS011;3159;52.414;9.784;2023-02-08T03:38:13;50.00;;;26.80;;
6251;SDS011;3159;52.414;9.784;2023-02-08T03:40:46;49.27;;;26.30;;
6251;SDS011;3159;52.414;9.784;2023-02-08T03:43:17;50.47;;;26.43;;
6251;SDS011;3159;52.414;9.784;2023-02-08T03:45:49;50.83;;;24.53;;
6251;SDS011;3159;52.414;9.784;2023-02-08T03:48:25;48.77;;;25.83;;
6251;SDS011;3159;52.414;9.784;2023-02-08T03:50:54;48.43;;;25.23;;
6251;SDS011;3159;52.414;9.784;2023-02-08T03:53:23;49.07;;;25.33;;
6251;SDS011;3159;52.414;9.784;2023-02-08T03:55:55;51.97;;;26.00;;
6251;SDS011;3159;52.414;9.784;2023-02-08T03:58:27;48.47;;;25.17;;
6251;SDS011;3159;52.414;9.784;2023-02-08T04:01:01;52.70;;;25.10;;
6251;SDS011;3159;52.414;9.784;2023-02-08T04:03:32;47.37;;;24.57;;
6251;SDS011;3159;52.414;9.784;2023-02-08T04:06:02;47.33;;;25.80;;
6251;SDS011;3159;52.414;9.784;2023-02-08T04:08:30;46.57;;;24.27;;
6251;SDS011;3159;52.414;9.784;2023-02-08T04:10:57;47.30;;;23.90;;
6251;SDS011;3159;52.414;9.784;2023-02-08T04:13:24;45.50;;;23.93;;
6251;SDS011;3159;52.414;9.784;2023-02-08T04:15:51;46.93;;;23.97;;
6251;SDS011;3159;52.414;9.784;2023-02-08T04:18:17;49.83;;;25.13;;
6251;SDS011;3159;52.414;9.784;2023-02-08T04:20:44;48.07;;;25.10;;
6251;SDS011;3159;52.414;9.784;2023-02-08T04:23:12;41.53;;;23.13;;
6251;SDS011;3159;52.414;9.784;2023-02-08T04:25:39;40.37;;;22.77;;
6251;SDS011;3159;52.414;9.784;2023-02-08T04:28:06;43.60;;;22.10;;
6251;SDS011;3159;52.414;9.784;2023-02-08T04:30:33;44.60;;;22.20;;
6251;SDS011;3159;52.414;9.784;2023-02-08T04:32:59;42.10;;;22.17;;
6251;SDS011;3159;52.414;9.784;2023-02-08T04:35:26;43.30;;;23.23;;
6251;SDS011;3159;52.414;9.784;2023-02-08T04:37:53;40.77;;;22.33;;
6251;SDS011;3159;52.414;9.784;2023-02-08T04:40:21;41.20;;;23.00;;
6251;SDS011;3159;52.414;9.784;2023-02-08T04:42:48;38.23;;;22.53;;
6251;SDS011;3159;52.414;9.784;2023-02-08T04:45:15;42.27;;;22.73;;
6251;SDS011;3159;52.414;9.784;2023-02-08T04:47:42;43.00;;;22.60;;
6251;SDS011;3159;52.414;9.784;2023-02-08T04:50:08;42.90;;;23.27;;
6251;SDS011;3159;52.414;9.784;2023-02-08T04:52:35;46.47;;;23.30;;
6251;SDS011;3159;52.414;9.784;2023-02-08T04:55:02;40.03;;;22.27;;
6251;SDS011;3159;52.414;9.784;2023-02-08T04:57:30;40.00;;;21.77;;
6251;SDS011;3159;52.414;9.784;2023-02-08T04:59:57;46.13;;;23.17;;
6251;SDS011;3159;52.414;9.784;2023-02-08T05:02:24;40.03;;;22.60;;
6251;SDS011;3159;52.414;9.784;2023-02-08T05:04:51;44.27;;;23.00;;
6251;SDS011;3159;52.414;9.784;2023-02-08T05:07:17;43.87;;;24.63;;
6251;SDS011;3159;52.414;9.784;2023-02-08T05:09:44;45.20;;;23.13;;
6251;SDS011;3159;52.414;9.784;2023-02-08T05:12:11;47.07;;;23.87;;
6251;SDS011;3159;52.414;9.784;2023-02-08T05:14:39;49.77;;;24.47;;
6251;SDS011;3159;52.414;9.784;2023-02-08T05:17:06;48.83;;;24.60;;
6251;SDS011;3159;52.414;9.784;2023-02-08T05:19:33;49.10;;;25.10;;
6251;SDS011;3159;52.414;9.784;2023-02-08T05:22:00;49.37;;;24.80;;
6251;SDS011;3159;52.414;9.784;2023-02-08T05:24:27;46.80;;;25.17;;
6251;SDS011;3159;52.414;9.784;2023-02-08T05:26:53;50.93;;;25.00;;
6251;SDS011;3159;52.414;9.784;2023-02-08T05:29:20;46.73;;;24.00;;
6251;SDS011;3159;52.414;9.784;2023-02-08T05:31:48;48.37;;;23.93;;
6251;SDS011;3159;52.414;9.784;2023-02-08T05:34:15;49.33;;;25.63;;
6251;SDS011;3159;52.414;9.784;2023-02-08T05:36:43;50.90;;;26.40;;
6251;SDS011;3159;52.414;9.784;2023-02-08T05:39:10;49.53;;;25.87;;
6251;SDS011;3159;52.414;9.784;2023-02-08T05:41:37;48.40;;;25.93;;
6251;SDS011;3159;52.414;9.784;2023-02-08T05:44:04;51.40;;;25.93;;
6251;SDS011;3159;52.414;9.784;2023-02-08T05:46:30;50.20;;;23.87;;
6251;SDS011;3159;52.414;9.784;2023-02-08T05:48:59;53.57;;;25.70;;
6251;SDS011;3159;52.414;9.784;2023-02-08T05:51:25;54.07;;;25.60;;
6251;SDS011;3159;52.414;9.784;2023-02-08T05:53:52;49.93;;;25.67;;
6251;SDS011;3159;52.414;9.784;2023-02-08T05:56:19;49.40;;;25.47;;
6251;SDS011;3159;52.414;9.784;2023-02-08T05:58:46;52.20;;;27.37;;
6251;SDS011;3159;52.414;9.784;2023-02-08T06:01:13;50.43;;;26.67;;
6251;SDS011;3159;52.414;9.784;2023-02-08T06:03:40;45.37;;;25.40;;
6251;SDS011;3159;52.414;9.784;2023-02-08T06:06:08;49.00;;;27.47;;
6251;SDS011;3159;52.414;9.784;2023-02-08T06:08:35;51.23;;;26.20;;
6251;SDS011;3159;52.414;9.784;2023-02-08T06:11:03;52.53;;;26.27;;
6251;SDS011;3159;52.414;9.784;2023-02-08T06:13:30;50.33;;;26.67;;
6251;SDS011;3159;52.414;9.784;2023-02-08T06:15:57;52.30;;;27.43;;
6251;SDS011;3159;52.414;9.784;2023-02-08T06:18:24;63.10;;;36.63;;
6251;SDS011;3159;52.414;9.784;2023-02-08T06:20:51;50.53;;;29.43;;
6251;SDS011;3159;52.414;9.784;2023-02-08T06:23:20;56.87;;;28.50;;
6251;SDS011;3159;52.414;9.784;2023-02-08T06:25:47;50.10;;;27.20;;
6251;SDS011;3159;52.414;9.784;2023-02-08T06:28:14;56.47;;;29.90;;
6251;SDS011;3159;52.414;9.784;2023-02-08T06:30:41;54.33;;;27.60;;
6251;SDS011;3159;52.414;9.784;2023-02-08T06:33:08;56.63;;;28.90;;
6251;SDS011;3159;52.414;9.784;2023-02-08T06:35:35;57.00;;;27.80;;
6251;SDS011;3159;52.414;9.784;2023-02-08T06:38:02;53.37;;;27.93;;
6251;SDS011;3159;52.414;9.784;2023-02-08T06:40:30;59.30;;;28.87;;
6251;SDS011;3159;52.414;9.784;2023-02-08T06:42:57;59.77;;;28.87;;
6251;SDS011;3159;52.414;9.784;2023-02-08T06:45:24;61.43;;;30.30;;
6251;SDS011;3159;52.414;9.784;2023-02-08T06:47:50;57.43;;;27.70;;
6251;SDS011;3159;52.414;9.784;2023-02-08T06:50:17;57.37;;;28.20;;
6251;SDS011;3159;52.414;9.784;2023-02-08T06:52:44;60.50;;;29.80;;
6251;SDS011;3159;52.414;9.784;2023-02-08T06:55:11;57.57;;;28.83;;
6251;SDS011;3159;52.414;9.784;2023-02-08T06:57:39;68.87;;;32.80;;
6251;SDS011;3159;52.414;9.784;2023-02-08T07:00:07;58.07;;;30.83;;
6251;SDS011;3159;52.414;9.784;2023-02-08T07:02:34;55.37;;;28.97;;
6251;SDS011;3159;52.414;9.784;2023-02-08T07:05:01;62.50;;;28.27;;
6251;SDS011;3159;52.414;9.784;2023-02-08T07:07:28;55.57;;;29.17;;
6251;SDS011;3159;52.414;9.784;2023-02-08T07:09:56;51.67;;;28.93;;
6251;SDS011;3159;52.414;9.784;2023-02-08T07:12:22;53.50;;;27.70;;
6251;SDS011;3159;52.414;9.784;2023-02-08T07:14:53;57.47;;;28.10;;
6251;SDS011;3159;52.414;9.784;2023-02-08T07:17:20;55.20;;;28.50;;
6251;SDS011;3159;52.414;9.784;2023-02-08T07:19:47;58.00;;;29.23;;
6251;SDS011;3159;52.414;9.784;2023-02-08T07:22:14;61.37;;;30.07;;
6251;SDS011;3159;52.414;9.784;2023-02-08T07:24:41;52.17;;;29.30;;
6251;SDS011;3159;52.414;9.784;2023-02-08T07:27:09;60.20;;;29.43;;
6251;SDS011;3159;52.414;9.784;2023-02-08T07:29:37;54.77;;;28.00;;
6251;SDS011;3159;52.414;9.784;2023-02-08T07:32:06;58.37;;;28.47;;
6251;SDS011;3159;52.414;9.784;2023-02-08T07:34:34;55.60;;;29.10;;
6251;SDS011;3159;52.414;9.784;2023-02-08T07:37:02;50.93;;;27.13;;
6251;SDS011;3159;52.414;9.784;2023-02-08T07:39:28;52.17;;;26.93;;
6251;SDS011;3159;52.414;9.784;2023-02-08T07:41:55;53.03;;;28.17;;
6251;SDS011;3159;52.414;9.784;2023-02-08T07:44:23;52.17;;;27.90;;
6251;SDS011;3159;52.414;9.784;2023-02-08T07:46:50;55.00;;;27.13;;
6251;SDS011;3159;52.414;9.784;2023-02-08T07:49:18;58.87;;;27.63;;
6251;SDS011;3159;52.414;9.784;2023-02-08T07:51:45;51.43;;;25.93;;
6251;SDS011;3159;52.414;9.784;2023-02-08T07:54:12;48.47;;;26.23;;
6251;SDS011;3159;52.414;9.784;2023-02-08T07:56:39;47.37;;;25.80;;
6251;SDS011;3159;52.414;9.784;2023-02-08T07:59:05;54.83;;;27.30;;
6251;SDS011;3159;52.414;9.784;2023-02-08T08:01:33;50.60;;;26.97;;
6251;SDS011;3159;52.414;9.784;2023-02-08T08:03:59;49.77;;;25.80;;
6251;SDS011;3159;52.414;9.784;2023-02-08T08:06:28;54.63;;;27.30;;
6251;SDS011;3159;52.414;9.784;2023-02-08T08:08:54;49.60;;;26.30;;
6251;SDS011;3159;52.414;9.784;2023-02-08T08:11:21;51.37;;;26.37;;
6251;SDS011;3159;52.414;9.784;2023-02-08T08:13:48;46.93;;;26.03;;
6251;SDS011;3159;52.414;9.784;2023-02-08T08:16:15;53.73;;;25.87;;
6251;SDS011;3159;52.414;9.784;2023-02-08T08:18:43;49.77;;;27.00;;
6251;SDS011;3159;52.414;9.784;2023-02-08T08:21:10;50.70;;;25.43;;
6251;SDS011;3159;52.414;9.784;2023-02-08T08:23:38;50.97;;;27.07;;
6251;SDS011;3159;52.414;9.784;2023-02-08T08:26:06;52.17;;;25.47;;
6251;SDS011;3159;52.414;9.784;2023-02-08T08:28:33;54.30;;;28.10;;
6251;SDS011;3159;52.414;9.784;2023-02-08T08:31:01;53.77;;;26.67;;
6251;SDS011;3159;52.414;9.784;2023-02-08T08:33:28;42.87;;;24.17;;
6251;SDS011;3159;52.414;9.784;2023-02-08T08:35:55;47.13;;;25.63;;
6251;SDS011;3159;52.414;9.784;2023-02-08T08:38:21;46.57;;;25.43;;
6251;SDS011;3159;52.414;9.784;2023-02-08T08:40:50;45.63;;;24.37;;
6251;SDS011;3159;52.414;9.784;2023-02-08T08:43:16;43.73;;;23.10;;
6251;SDS011;3159;52.414;9.784;2023-02-08T08:45:43;46.40;;;24.23;;
6251;SDS011;3159;52.414;9.784;2023-02-08T08:48:10;43.87;;;23.90;;
6251;SDS011;3159;52.414;9.784;2023-02-08T08:50:37;45.47;;;24.60;;
6251;SDS011;3159;52.414;9.784;2023-02-08T08:53:04;46.77;;;24.43;;
6251;SDS011;3159;52.414;9.784;2023-02-08T08:55:31;45.60;;;24.13;;
6251;SDS011;3159;52.414;9.784;2023-02-08T08:57:59;43.87;;;23.87;;
6251;SDS011;3159;52.414;9.784;2023-02-08T09:00:26;44.73;;;22.60;;
6251;SDS011;3159;52.414;9.784;2023-02-08T09:02:52;42.40;;;23.43;;
6251;SDS011;3159;52.414;9.784;2023-02-08T09:05:19;44.00;;;23.83;;
6251;SDS011;3159;52.414;9.784;2023-02-08T09:07:46;44.23;;;22.97;;
6251;SDS011;3159;52.414;9.784;2023-02-08T09:10:13;42.47;;;22.40;;
6251;SDS011;3159;52.414;9.784;2023-02-08T09:12:40;41.13;;;23.43;;
6251;SDS011;3159;52.414;9.784;2023-02-08T09:15:08;41.23;;;22.27;;
6251;SDS011;3159;52.414;9.784;2023-02-08T09:17:35;39.67;;;22.70;;
6251;SDS011;3159;52.414;9.784;2023-02-08T09:20:02;37.87;;;22.53;;
6251;SDS011;3159;52.414;9.784;2023-02-08T09:22:31;47.17;;;23.40;;
6251;SDS011;3159;52.414;9.784;2023-02-08T09:24:57;42.57;;;21.93;;
6251;SDS011;3159;52.414;9.784;2023-02-08T09:27:26;39.60;;;21.50;;
6251;SDS011;3159;52.414;9.784;2023-02-08T09:29:52;34.23;;;20.87;;
6251;SDS011;3159;52.414;9.784;2023-02-08T09:32:20;46.87;;;22.60;;
6251;SDS011;3159;52.414;9.784;2023-02-08T09:34:47;37.10;;;21.43;;
6251;SDS011;3159;52.414;9.784;2023-02-08T09:37:14;41.57;;;23.00;;
6251;SDS011;3159;52.414;9.784;2023-02-08T09:39:42;37.77;;;22.33;;
6251;SDS011;3159;52.414;9.784;2023-02-08T09:42:19;40.07;;;21.90;;
6251;SDS011;3159;52.414;9.784;2023-02-08T09:44:56;37.50;;;21.70;;
6251;SDS011;3159;52.414;9.784;2023-02-08T09:47:33;33.47;;;19.93;;
6251;SDS011;3159;52.414;9.784;2023-02-08T09:50:02;38.50;;;21.23;;
6251;SDS011;3159;52.414;9.784;2023-02-08T09:52:35;37.97;;;20.63;;
6251;SDS011;3159;52.414;9.784;2023-02-08T09:55:10;37.73;;;19.43;;
6251;SDS011;3159;52.414;9.784;2023-02-08T09:57:46;38.33;;;20.73;;
6251;SDS011;3159;52.414;9.784;2023-02-08T10:00:18;35.67;;;20.83;;
6251;SDS011;3159;52.414;9.784;2023-02-08T10:02:51;33.97;;;20.73;;
6251;SDS011;3159;52.414;9.784;2023-02-08T10:05:23;34.30;;;20.57;;
6251;SDS011;3159;52.414;9.784;2023-02-08T10:07:51;32.23;;;19.00;;
6251;SDS011;3159;52.414;9.784;2023-02-08T10:10:19;34.83;;;20.03;;
6251;SDS011;3159;52.414;9.784;2023-02-08T10:12:52;34.23;;;19.30;;
6251;SDS011;3159;52.414;9.784;2023-02-08T10:15:29;32.57;;;19.53;;
6251;SDS011;3159;52.414;9.784;2023-02-08T10:18:13;33.03;;;20.10;;
6251;SDS011;3159;52.414;9.784;2023-02-08T10:21:04;34.30;;;20.23;;
6251;SDS011;3159;52.414;9.784;2023-02-08T10:23:52;34.87;;;20.27;;
6251;SDS011;3159;52.414;9.784;2023-02-08T10:26:33;34.67;;;19.73;;
6251;SDS011;3159;52.414;9.784;2023-02-08T10:29:15;36.30;;;20.57;;
6251;SDS011;3159;52.414;9.784;2023-02-08T10:32:03;34.27;;;19.53;;
6251;SDS011;3159;52.414;9.784;2023-02-08T10:34:41;31.83;;;18.83;;
6251;SDS011;3159;52.414;9.784;2023-02-08T10:37:11;29.20;;;18.27;;
6251;SDS011;3159;52.414;9.784;2023-02-08T10:39:40;35.33;;;17.77;;
6251;SDS011;3159;52.414;9.784;2023-02-08T10:42:09;31.10;;;18.10;;
6251;SDS011;3159;52.414;9.784;2023-02-08T10:44:43;31.13;;;18.10;;
6251;SDS011;3159;52.414;9.784;2023-02-08T10:47:19;27.50;;;16.80;;
6251;SDS011;3159;52.414;9.784;2023-02-08T10:50:00;28.13;;;17.60;;
6251;SDS011;3159;52.414;9.784;2023-02-08T10:52:30;28.23;;;16.93;;
6251;SDS011;3159;52.414;9.784;2023-02-08T10:54:57;26.63;;;16.70;;
6251;SDS011;3159;52.414;9.784;2023-02-08T10:57:25;30.80;;;17.07;;
6251;SDS011;3159;52.414;9.784;2023-02-08T10:59:56;32.77;;;17.67;;
6251;SDS011;3159;52.414;9.784;2023-02-08T11:02:27;27.83;;;16.97;;
6251;SDS011;3159;52.414;9.784;2023-02-08T11:04:57;27.00;;;16.67;;
6251;SDS011;3159;52.414;9.784;2023-02-08T11:07:27;30.73;;;16.60;;
6251;SDS011;3159;52.414;9.784;2023-02-08T11:09:59;31.90;;;18.13;;
6251;SDS011;3159;52.414;9.784;2023-02-08T11:12:56;27.47;;;17.60;;
6251;SDS011;3159;52.414;9.784;2023-02-08T11:15:26;30.93;;;16.33;;
6251;SDS011;3159;52.414;9.784;2023-02-08T11:17:56;31.47;;;16.93;;
6251;SDS011;3159;52.414;9.784;2023-02-08T11:20:29;29.77;;;17.17;;
6251;SDS011;3159;52.414;9.784;2023-02-08T11:23:00;27.60;;;17.47;;
6251;SDS011;3159;52.414;9.784;2023-02-08T11:25:35;34.03;;;17.93;;
6251;SDS011;3159;52.414;9.784;2023-02-08T11:28:03;32.23;;;16.90;;
6251;SDS011;3159;52.414;9.784;2023-02-08T11:30:31;27.27;;;16.70;;
6251;SDS011;3159;52.414;9.784;2023-02-08T11:33:15;25.37;;;15.57;;
6251;SDS011;3159;52.414;9.784;2023-02-08T11:35:59;28.50;;;16.27;;
6251;SDS011;3159;52.414;9.784;2023-02-08T11:38:30;28.00;;;15.37;;
6251;SDS011;3159;52.414;9.784;2023-02-08T11:41:01;26.40;;;14.13;;
6251;SDS011;3159;52.414;9.784;2023-02-08T11:43:31;27.50;;;14.47;;
6251;SDS011;3159;52.414;9.784;2023-02-08T11:46:00;24.77;;;13.37;;
6251;SDS011;3159;52.414;9.784;2023-02-08T11:48:33;27.10;;;13.67;;
6251;SDS011;3159;52.414;9.784;2023-02-08T11:51:09;27.33;;;14.53;;
6251;SDS011;3159;52.414;9.784;2023-02-08T11:53:40;23.73;;;13.73;;
6251;SDS011;3159;52.414;9.784;2023-02-08T11:56:14;24.60;;;13.60;;
6251;SDS011;3159;52.414;9.784;2023-02-08T11:58:54;23.33;;;13.63;;
6251;SDS011;3159;52.414;9.784;2023-02-08T12:01:24;21.27;;;13.60;;
6251;SDS011;3159;52.414;9.784;2023-02-08T12:03:53;21.07;;;12.90;;
6251;SDS011;3159;52.414;9.784;2023-02-08T12:06:26;24.20;;;14.00;;
6251;SDS011;3159;52.414;9.784;2023-02-08T12:09:17;23.13;;;14.60;;
6251;SDS011;3159;52.414;9.784;2023-02-08T12:11:53;23.53;;;13.97;;
6251;SDS011;3159;52.414;9.784;2023-02-08T12:14:30;25.90;;;13.40;;
6251;SDS011;3159;52.414;9.784;2023-02-08T12:17:22;24.23;;;12.70;;
6251;SDS011;3159;52.414;9.784;2023-02-08T12:23:13;18.43;;;12.23;;
6251;SDS011;3159;52.414;9.784;2023-02-08T12:26:01;18.37;;;12.13;;
6251;SDS011;3159;52.414;9.784;2023-02-08T12:28:37;18.70;;;11.73;;
6251;SDS011;3159;52.414;9.784;2023-02-08T12:31:13;21.37;;;12.73;;
6251;SDS011;3159;52.414;9.784;2023-02-08T12:33:49;19.17;;;11.63;;
6251;SDS011;3159;52.414;9.784;2023-02-08T12:36:31;19.23;;;11.67;;
6251;SDS011;3159;52.414;9.784;2023-02-08T12:39:08;19.73;;;12.60;;
6251;SDS011;3159;52.414;9.784;2023-02-08T12:42:05;23.87;;;12.20;;
6251;SDS011;3159;52.414;9.784;2023-02-08T12:45:00;20.97;;;12.40;;
6251;SDS011;3159;52.414;9.784;2023-02-08T12:47:41;19.63;;;10.77;;
6251;SDS011;3159;52.414;9.784;2023-02-08T12:50:21;18.77;;;10.57;;
6251;SDS011;3159;52.414;9.784;2023-02-08T12:52:55;18.17;;;10.50;;
6251;SDS011;3159;52.414;9.784;2023-02-08T12:55:28;17.67;;;9.90;;
6251;SDS011;3159;52.414;9.784;2023-02-08T12:57:58;18.97;;;11.13;;
6251;SDS011;3159;52.414;9.784;2023-02-08T13:00:30;20.87;;;11.23;;
6251;SDS011;3159;52.414;9.784;2023-02-08T13:03:02;20.03;;;10.33;;
6251;SDS011;3159;52.414;9.784;2023-02-08T13:05:34;19.93;;;10.00;;
6251;SDS011;3159;52.414;9.784;2023-02-08T13:08:06;20.63;;;11.33;;
6251;SDS011;3159;52.414;9.784;2023-02-08T13:10:44;20.83;;;10.73;;
6251;SDS011;3159;52.414;9.784;2023-02-08T13:13:15;18.70;;;11.40;;
6251;SDS011;3159;52.414;9.784;2023-02-08T13:15:47;22.73;;;10.83;;
6251;SDS011;3159;52.414;9.784;2023-02-08T13:18:21;20.97;;;11.37;;
6251;SDS011;3159;52.414;9.784;2023-02-08T13:20:53;17.00;;;9.73;;
6251;SDS011;3159;52.414;9.784;2023-02-08T13:23:25;19.50;;;10.40;;
6251;SDS011;3159;52.414;9.784;2023-02-08T13:25:56;18.70;;;10.07;;
6251;SDS011;3159;52.414;9.784;2023-02-08T13:28:25;13.37;;;8.20;;
6251;SDS011;3159;52.414;9.784;2023-02-08T13:30:54;24.73;;;9.47;;
6251;SDS011;3159;52.414;9.784;2023-02-08T13:33:27;16.83;;;9.37;;
6251;SDS011;3159;52.414;9.784;2023-02-08T13:35:59;15.70;;;9.30;;
6251;SDS011;3159;52.414;9.784;2023-02-08T13:38:28;22.93;;;9.77;;
6251;SDS011;3159;52.414;9.784;2023-02-08T13:41:03;15.73;;;9.20;;
6251;SDS011;3159;52.414;9.784;2023-02-08T13:43:35;14.90;;;8.50;;
6251;SDS011;3159;52.414;9.784;2023-02-08T13:46:05;14.63;;;9.30;;
6251;SDS011;3159;52.414;9.784;2023-02-08T13:48:39;16.63;;;9.20;;
6251;SDS011;3159;52.414;9.784;2023-02-08T13:54:10;14.77;;;8.43;;
6251;SDS011;3159;52.414;9.784;2023-02-08T13:56:40;14.53;;;7.90;;
6251;SDS011;3159;52.414;9.784;2023-02-08T13:59:24;12.50;;;7.57;;
6251;SDS011;3159;52.414;9.784;2023-02-08T14:04:46;12.10;;;7.20;;
6251;SDS011;3159;52.414;9.784;2023-02-08T14:07:17;10.40;;;6.97;;
6251;SDS011;3159;52.414;9.784;2023-02-08T14:12:57;9.73;;;6.43;;
6251;SDS011;3159;52.414;9.784;2023-02-08T14:15:32;12.00;;;6.73;;
6251;SDS011;3159;52.414;9.784;2023-02-08T14:18:01;11.60;;;6.67;;
6251;SDS011;3159;52.414;9.784;2023-02-08T14:20:31;11.40;;;6.97;;
6251;SDS011;3159;52.414;9.784;2023-02-08T14:23:01;14.50;;;6.73;;
6251;SDS011;3159;52.414;9.784;2023-02-08T14:25:37;11.63;;;6.33;;
6251;SDS011;3159;52.414;9.784;2023-02-08T14:28:20;13.23;;;6.23;;
6251;SDS011;3159;52.414;9.784;2023-02-08T14:30:53;8.63;;;5.73;;
6251;SDS011;3159;52.414;9.784;2023-02-08T14:33:23;7.90;;;5.13;;
6251;SDS011;3159;52.414;9.784;2023-02-08T14:35:53;10.63;;;6.37;;
6251;SDS011;3159;52.414;9.784;2023-02-08T14:41:43;16.10;;;7.40;;
6251;SDS011;3159;52.414;9.784;2023-02-08T14:47:39;12.43;;;7.93;;
6251;SDS011;3159;52.414;9.784;2023-02-08T14:50:39;12.47;;;8.20;;
6251;SDS011;3159;52.414;9.784;2023-02-08T14:53:15;17.07;;;8.90;;
6251;SDS011;3159;52.414;9.784;2023-02-08T14:55:51;16.50;;;9.90;;
6251;SDS011;3159;52.414;9.784;2023-02-08T14:58:26;14.60;;;9.50;;
6251;SDS011;3159;52.414;9.784;2023-02-08T15:00:55;17.87;;;9.20;;
6251;SDS011;3159;52.414;9.784;2023-02-08T15:03:27;18.80;;;10.03;;
6251;SDS011;3159;52.414;9.784;2023-02-08T15:06:01;18.10;;;9.47;;
6251;SDS011;3159;52.414;9.784;2023-02-08T15:08:50;18.00;;;9.20;;
6251;SDS011;3159;52.414;9.784;2023-02-08T15:11:19;15.47;;;9.03;;
6251;SDS011;3159;52.414;9.784;2023-02-08T15:13:49;18.20;;;9.80;;
6251;SDS011;3159;52.414;9.784;2023-02-08T15:16:17;14.57;;;9.00;;
6251;SDS011;3159;52.414;9.784;2023-02-08T15:18:46;15.67;;;9.07;;
6251;SDS011;3159;52.414;9.784;2023-02-08T15:21:16;22.60;;;10.23;;
6251;SDS011;3159;52.414;9.784;2023-02-08T15:23:56;16.43;;;9.30;;
6251;SDS011;3159;52.414;9.784;2023-02-08T15:26:24;18.97;;;9.27;;
6251;SDS011;3159;52.414;9.784;2023-02-08T15:28:51;17.33;;;10.10;;
6251;SDS011;3159;52.414;9.784;2023-02-08T15:31:19;17.73;;;8.97;;